Latest Weather Observations for PORTABLE BTSD (DFES)

IDW60801

Issued at 2:13 pm WST Friday 3 December 2021 (issued every 10 minutes, with the page automatically refreshed every 10 minutes)

About weather observations | Map of weather stations | Latest weather observations for WA | Other Formats
Station Details ID: 250119 Name: DFES PORTABLE AWS D Lat: -31.21 Lon: 120.26 Height: 10.0 m

Portable automatic weather stations (PAWS) are operated by other organisations, such as Fire and Emergency Services, and are included here by agreement. Portable stations may be deployed to a location for a short period and their location may be subject to change without notice. Wind observations from these stations are provided from heights of either three (3) or ten (10) metres above ground level (AGL).

Data from the previous 72 hours. | See also: Recent months for locations in Western Australia
Date/Time
WST
Temp
°C
App
Temp
°C
Dew
Point
°C
Rel
Hum
%
Delta-T
°C
Wind Press
QNH
hPa
Press
MSL
hPa
Rain since
9am
mm
Dir  Spd
km/h
Gust
km/h
Spd
kts
Gust
kts
03/02:00pm 28.7 23.1 5.2 22 12.2 ESE 24 30 13 16 - - 0.0
03/01:50pm 29.2 24.3 5.2 22 12.5 ESE 20 26 11 14 - - 0.0
03/01:40pm 28.2 22.6 5.2 23 11.9 ESE 24 28 13 15 - - 0.0
03/01:30pm 28.3 22.8 5.7 23 11.8 ESE 24 30 13 16 - - 0.0
03/01:20pm 28.4 23.2 5.6 23 11.9 ESE 22 26 12 14 - - 0.0
03/01:10pm 28.1 22.9 5.3 23 11.8 ESE 22 30 12 16 - - 0.0
03/01:00pm 27.7 22.1 5.6 24 11.5 SE 24 28 13 15 - - 0.0
03/12:50pm 27.9 23.1 5.8 24 11.5 ESE 20 26 11 14 - - 0.0
03/12:40pm 27.1 21.6 5.9 26 11.0 ESE 24 28 13 15 - - 0.0
03/12:30pm 27.4 22.3 6.2 26 11.1 ESE 22 26 12 14 - - 0.0
03/12:20pm 26.7 21.6 5.9 26 10.8 ESE 22 32 12 17 - - 0.0
03/12:10pm 26.6 21.5 6.2 27 10.6 ESE 22 28 12 15 - - 0.0
03/12:00pm 26.5 21.1 6.2 27 10.6 ESE 24 26 13 14 - - 0.0
03/11:50am 26.3 20.8 6.1 27 10.5 E 24 28 13 15 - - 0.0
03/11:40am 26.2 20.8 6.3 28 10.4 E 24 28 13 15 - - 0.0
03/11:30am 26.0 20.5 6.1 28 10.3 E 24 30 13 16 - - 0.0
03/11:20am 25.5 20.4 6.1 29 10.0 ESE 22 30 12 16 - - 0.0
03/11:10am 25.4 19.9 6.1 29 10.0 ESE 24 28 13 15 - - 0.0
03/11:00am 25.1 19.6 5.9 29 9.9 E 24 28 13 15 - - 0.0
03/10:50am 24.8 19.3 6.1 30 9.6 ESE 24 26 13 14 - - 0.0
03/10:40am 24.8 20.1 6.2 30 9.6 ESE 20 26 11 14 - - 0.0
03/10:30am 24.1 18.7 6.3 31 9.1 ESE 24 26 13 14 - - 0.0
03/10:20am 23.6 18.6 6.5 33 8.8 ESE 22 28 12 15 - - 0.0
03/10:10am 23.5 18.1 6.4 33 8.8 E 24 26 13 14 - - 0.0
03/10:00am 23.3 18.0 6.8 34 8.5 ESE 24 28 13 15 - - 0.0
03/09:50am 22.9 17.9 6.6 35 8.4 ESE 22 26 12 14 - - 0.0
03/09:40am 22.4 17.1 6.8 36 8.0 ESE 24 28 13 15 - - 0.0
03/09:30am 22.2 17.4 7.3 38 7.7 ESE 22 26 12 14 - - 0.0
03/09:20am 21.6 16.7 7.0 39 7.5 ESE 22 26 12 14 - - 0.0
03/09:10am 21.3 16.9 7.2 40 7.2 ESE 20 28 11 15 - - 0.0
03/09:00am 20.9 15.7 7.4 41 6.9 ESE 24 28 13 15 - - 0.0
03/08:50am 20.4 15.3 7.7 44 6.5 ESE 24 28 13 15 - - 0.0
03/08:40am 20.1 15.1 7.9 45 6.3 ESE 24 26 13 14 - - 0.0
03/08:30am 19.5 14.0 7.5 45 6.1 ESE 26 30 14 16 - - 0.0
03/08:20am 19.2 14.6 8.1 48 5.7 ESE 22 30 12 16 - - 0.0
03/08:10am 19.0 13.9 7.8 48 5.7 ESE 24 30 13 16 - - 0.0
03/08:00am 18.6 13.9 7.7 49 5.6 ESE 22 26 12 14 - - 0.0
03/07:50am 18.0 13.0 8.1 52 5.1 ESE 24 28 13 15 - - 0.0
03/07:40am 17.7 12.7 8.0 53 4.9 ESE 24 28 13 15 - - 0.0
03/07:30am 17.3 11.9 7.9 54 4.8 ESE 26 30 14 16 - - 0.0
03/07:20am 17.1 11.8 8.3 56 4.5 ESE 26 30 14 16 - - 0.0
03/07:10am 17.1 12.9 8.2 56 4.5 ESE 20 24 11 13 - - 0.0
03/07:00am 16.4 11.4 8.2 58 4.2 ESE 24 30 13 16 - - 0.0
03/06:50am 16.2 11.6 8.2 59 4.0 ESE 22 28 12 15 - - 0.0
03/06:40am 15.9 11.3 8.1 60 3.9 ESE 22 28 12 15 - - 0.0
03/06:30am 15.3 9.9 8.0 61 3.7 ESE 26 30 14 16 - - 0.0
03/06:20am 15.1 9.7 8.0 62 3.6 ESE 26 30 14 16 - - 0.0
03/06:10am 14.9 10.2 7.9 63 3.5 ESE 22 28 12 15 - - 0.0
03/06:00am 14.3 9.3 7.9 65 3.2 ESE 24 28 13 15 - - 0.0
03/05:50am 14.1 9.5 8.0 66 3.0 SE 22 26 12 14 - - 0.0
03/05:40am 14.3 9.6 7.9 65 3.2 ESE 22 24 12 13 - - 0.0
03/05:30am 14.0 9.3 7.8 66 3.1 SE 22 28 12 15 - - 0.0
03/05:20am 14.0 9.3 7.9 66 3.0 ESE 22 28 12 15 - - 0.0
03/05:10am 14.0 9.7 7.7 66 3.1 SE 20 24 11 13 - - 0.0
03/05:00am 13.9 9.5 7.6 66 3.1 ESE 20 26 11 14 - - 0.0
03/04:50am 13.9 9.5 7.6 66 3.1 SE 20 24 11 13 - - 0.0
03/04:40am 14.0 9.8 7.5 65 3.2 SE 19 26 10 14 - - 0.0
03/04:30am 14.2 10.0 7.5 64 3.3 SE 19 24 10 13 - - 0.0
03/04:20am 14.5 10.3 7.4 62 3.5 SE 19 24 10 13 - - 0.0
03/04:10am 14.7 10.5 7.4 61 3.6 SE 19 22 10 12 - - 0.0
03/04:00am 14.8 10.6 7.4 61 3.7 SE 19 22 10 12 - - 0.0
03/03:50am 15.0 10.8 7.4 60 3.8 SE 19 20 10 11 - - 0.0
03/03:40am 15.2 11.0 7.6 60 3.8 ESE 19 20 10 11 - - 0.0
03/03:30am 15.2 11.0 7.5 60 3.8 SE 19 20 10 11 - - 0.0
03/03:20am 15.1 11.3 7.4 60 3.8 SE 17 19 9 10 - - 0.0
03/03:10am 15.1 11.7 7.6 61 3.7 SE 15 17 8 9 - - 0.0
03/03:00am 15.1 11.7 7.7 61 3.7 SE 15 17 8 9 - - 0.0
03/02:50am 15.2 11.8 7.8 61 3.7 SE 15 19 8 10 - - 0.0
03/02:40am 15.3 12.0 8.0 61 3.7 SE 15 19 8 10 - - 0.0
03/02:30am 15.4 11.7 8.1 61 3.7 SE 17 19 9 10 - - 0.0
03/02:20am 15.5 11.5 8.1 61 3.7 SE 19 22 10 12 - - 0.0
03/02:10am 15.5 11.9 8.3 62 3.6 SE 17 20 9 11 - - 0.0
03/02:00am 15.6 11.6 8.3 62 3.7 SE 19 24 10 13 - - 0.0
03/01:50am 15.7 12.5 8.5 62 3.7 SE 15 19 8 10 - - 0.0
03/01:40am 15.9 12.0 8.5 61 3.8 SE 19 20 10 11 - - 0.0
03/01:30am 16.0 12.4 8.5 61 3.8 SE 17 19 9 10 - - 0.0
03/01:20am 16.0 12.8 8.6 61 3.8 SE 15 19 8 10 - - 0.0
03/01:10am 16.2 12.7 8.6 60 3.9 SE 17 20 9 11 - - 0.0
03/01:00am 16.3 12.4 8.7 60 3.9 SE 19 24 10 13 - - 0.0
03/12:50am 16.4 12.9 8.7 60 3.9 SE 17 19 9 10 - - 0.0
03/12:40am 16.5 12.6 8.8 60 4.0 SE 19 22 10 12 - - 0.0
03/12:30am 16.6 12.7 8.8 60 4.0 SE 19 22 10 12 - - 0.0
03/12:20am 16.7 12.8 8.8 59 4.1 SE 19 22 10 12 - - 0.0
03/12:10am 16.8 12.9 8.8 59 4.1 SE 19 22 10 12 - - 0.0
03/12:00am 16.9 13.4 8.8 59 4.2 SE 17 22 9 12 - - 0.0
 
Date/Time
WST
Temp
°C
App
Temp
°C
Dew
Point
°C
Rel
Hum
%
Delta-T
°C
Wind Press
QNH
hPa
Press
MSL
hPa
Rain since
9am
mm
Dir  Spd
km/h
Gust
km/h
Spd
kts
Gust
kts
02/11:50pm 17.0 13.0 8.9 59 4.2 SE 20 22 11 12 - - 0.0
02/11:40pm 17.1 13.3 8.9 58 4.2 SE 19 22 10 12 - - 0.0
02/11:30pm 17.2 13.4 8.9 58 4.3 SE 19 24 10 13 - - 0.0
02/11:20pm 17.4 13.6 9.0 58 4.4 SE 19 24 10 13 - - 0.0
02/11:10pm 17.6 13.6 8.9 56 4.5 SE 20 24 11 13 - - 0.0
02/11:00pm 17.7 13.9 9.0 56 4.5 SE 19 22 10 12 - - 0.0
02/10:50pm 18.0 14.0 8.9 55 4.7 SE 20 22 11 12 - - 0.0
02/10:40pm 18.3 13.5 8.9 54 4.9 SE 24 28 13 15 - - 0.0
02/10:30pm 18.6 14.5 8.8 53 5.1 SE 20 22 11 12 - - 0.0
02/10:20pm 18.9 14.8 8.7 51 5.3 SE 20 26 11 14 - - 0.0
02/10:10pm 19.2 14.4 8.7 50 5.5 SE 24 28 13 15 - - 0.0
02/10:00pm 19.6 15.5 8.6 49 5.7 SE 20 24 11 13 - - 0.0
02/09:50pm 20.1 15.2 8.5 47 6.1 SE 24 28 13 15 - - 0.0
02/09:40pm 20.7 16.2 8.4 45 6.4 SE 22 32 12 17 - - 0.0
02/09:30pm 21.4 16.5 8.3 43 6.9 SE 24 32 13 17 - - 0.0
02/09:20pm 22.2 16.8 8.2 40 7.4 SSE 26 33 14 18 - - 0.0
02/09:10pm 23.7 21.2 6.6 33 8.8 SE 9 11 5 6 - - 0.0
02/09:00pm 24.0 21.5 6.4 32 9.0 ESE 9 11 5 6 - - 0.0
02/08:50pm 24.2 21.7 6.5 32 9.1 ESE 9 11 5 6 - - 0.0
02/08:40pm 24.3 21.8 6.4 31 9.2 ESE 9 11 5 6 - - 0.0
02/08:30pm 24.5 22.0 6.4 31 9.3 ESE 9 11 5 6 - - 0.0
02/08:20pm 24.7 22.1 6.3 30 9.5 ESE 9 11 5 6 - - 0.0
02/08:10pm 24.9 22.0 6.3 30 9.6 ESE 11 11 6 6 - - 0.0
02/08:00pm 25.1 22.2 6.3 30 9.7 ESE 11 11 6 6 - - 0.0
02/07:50pm 25.2 22.6 6.3 29 9.8 ESE 9 11 5 6 - - 0.0
02/07:40pm 25.5 23.0 6.4 29 9.9 ESE 9 9 5 5 - - 0.0
02/07:30pm 25.8 23.2 6.3 28 10.1 ESE 9 13 5 7 - - 0.0
02/07:20pm 25.9 23.3 6.3 28 10.2 E 9 11 5 6 - - 0.0
02/07:10pm 26.1 23.9 6.4 28 10.3 ESE 7 9 4 5 - - 0.0
02/07:00pm 26.5 24.0 6.4 27 10.5 E 9 13 5 7 - - 0.0
02/06:50pm 26.8 23.9 6.3 27 10.7 - 11 13 6 7 - - 0.0
02/06:40pm 26.9 23.6 6.3 27 10.8 E 13 15 7 8 - - 0.0
02/06:30pm 27.1 23.8 6.3 26 10.9 E 13 15 7 8 - - 0.0
02/06:20pm 27.5 24.6 6.5 26 11.0 E 11 13 6 7 - - 0.0
02/06:10pm 28.0 24.7 6.4 25 11.4 E 13 17 7 9 - - 0.0
02/06:00pm 28.2 24.9 6.3 25 11.5 E 13 15 7 8 - - 0.0
02/05:50pm 28.6 24.9 6.3 24 11.8 ENE 15 19 8 10 - - 0.0
02/05:40pm 28.9 25.5 6.1 23 12.0 E 13 17 7 9 - - 0.0
02/05:30pm 28.6 24.9 6.2 24 11.8 E 15 19 8 10 - - 0.0
02/05:20pm 29.0 24.5 6.1 23 12.1 E 19 24 10 13 - - 0.0
02/05:10pm 29.1 25.0 6.0 23 12.2 E 17 19 9 10 - - 0.0
02/05:00pm 28.7 24.6 6.3 24 11.8 ESE 17 22 9 12 - - 0.0
02/04:50pm 29.3 24.8 6.1 23 12.2 E 19 22 10 12 - - 0.0
02/04:40pm 29.2 25.1 6.1 23 12.2 E 17 22 9 12 - - 0.0
02/04:30pm 29.3 25.5 5.9 22 12.3 E 15 19 8 10 - - 0.0
02/04:20pm 29.2 24.8 6.4 23 12.1 ESE 19 22 10 12 - - 0.0
02/04:10pm 29.2 25.4 5.7 22 12.3 E 15 20 8 11 - - 0.0
02/04:00pm 29.5 25.3 5.9 22 12.4 ESE 17 22 9 12 - - 0.0
02/03:50pm 29.2 25.4 5.9 23 12.3 E 15 19 8 10 - - 0.0
02/03:40pm 28.7 25.4 6.2 24 11.9 E 13 19 7 10 - - 0.0
02/03:30pm 29.7 26.0 6.2 22 12.5 E 15 19 8 10 - - 0.0
02/03:20pm 28.8 25.0 6.0 23 12.0 ESE 15 19 8 10 - - 0.0
02/03:10pm 28.6 24.5 6.0 24 11.9 E 17 20 9 11 - - 0.0
02/03:00pm 29.5 25.4 6.1 22 12.4 E 17 20 9 11 - - 0.0
02/02:50pm 29.2 25.9 6.3 23 12.1 E 13 20 7 11 - - 0.0
02/02:40pm 29.3 25.2 6.1 23 12.2 ENE 17 22 9 12 - - 0.0
02/02:30pm 29.6 25.8 6.0 22 12.5 E 15 20 8 11 - - 0.0
02/02:20pm 28.8 24.1 5.3 22 12.2 ESE 19 22 10 12 - - 0.0
02/02:10pm 29.0 24.8 5.7 23 12.2 ESE 17 20 9 11 - - 0.0
02/02:00pm 28.9 24.3 5.8 23 12.1 E 19 24 10 13 - - 0.0
02/01:50pm 28.5 23.9 5.5 23 12.0 E 19 24 10 13 - - 0.0
02/01:40pm 28.7 24.6 6.1 24 11.9 E 17 22 9 12 - - 0.0
02/01:30pm 28.7 25.2 5.4 22 12.1 E 13 20 7 11 - - 0.0
02/01:20pm 27.7 23.2 5.9 25 11.4 ESE 19 26 10 14 - - 0.0
02/01:10pm 27.5 22.9 5.8 25 11.3 - 19 24 10 13 - - 0.0
02/01:00pm 27.3 22.7 5.6 25 11.2 ESE 19 26 10 14 - - 0.0
02/12:50pm 27.5 22.9 5.7 25 11.3 E 19 22 10 12 - - 0.0
02/12:40pm 27.1 22.5 5.7 25 11.1 E 19 24 10 13 - - 0.0
02/12:30pm 26.7 22.1 5.8 26 10.8 ESE 19 22 10 12 - - 0.0
02/12:20pm 26.3 22.1 5.6 26 10.6 ESE 17 24 9 13 - - 0.0
02/12:10pm 26.0 20.9 5.8 27 10.4 ESE 22 24 12 13 - - 0.0
02/12:00pm 25.8 21.2 5.5 27 10.4 E 19 22 10 12 - - 0.0
02/11:50am 25.8 21.0 5.4 27 10.4 E 20 26 11 14 - - 0.0
02/11:40am 25.4 20.6 5.7 28 10.1 E 20 24 11 13 - - 0.0
02/11:30am 25.1 20.2 5.3 28 10.0 E 20 24 11 13 - - 0.0
02/11:20am 25.1 20.2 5.2 27 10.1 E 20 24 11 13 - - 0.0
02/11:10am 24.4 19.1 4.9 28 9.8 E 22 26 12 14 - - 0.0
02/11:00am 24.6 19.4 5.4 29 9.7 E 22 26 12 14 - - 0.0
02/10:50am 24.1 19.5 5.5 30 9.4 E 19 26 10 14 - - 0.0
02/10:40am 23.8 19.2 5.6 31 9.2 E 19 24 10 13 - - 0.0
02/10:30am 23.1 17.9 5.4 31 8.9 E 22 26 12 14 - - 0.0
02/10:20am 23.3 18.6 6.0 32 8.8 E 20 24 11 13 - - 0.0
02/10:10am 23.1 18.5 5.8 32 8.7 E 19 24 10 13 - - 0.0
02/10:00am 22.1 16.6 5.9 35 8.2 E 24 26 13 14 - - 0.0
02/09:50am 22.0 16.9 5.8 35 8.1 ESE 22 26 12 14 - - 0.0
02/09:40am 21.7 16.6 5.9 35 7.9 E 22 28 12 15 - - 0.0
02/09:30am 21.1 15.9 5.7 36 7.7 E 22 26 12 14 - - 0.0
02/09:20am 21.0 15.9 5.8 37 7.6 ESE 22 26 12 14 - - 0.0
02/09:10am 20.7 15.6 6.0 38 7.3 E 22 26 12 14 - - 0.0
02/09:00am 20.4 15.7 6.1 39 7.1 E 20 28 11 15 - - 0.0
02/08:50am 19.5 14.0 6.1 41 6.7 ESE 24 28 13 15 - - 0.0
02/08:40am 19.5 14.0 6.1 41 6.7 ESE 24 26 13 14 - - 0.0
02/08:30am 19.2 13.7 5.7 41 6.6 E 24 28 13 15 - - 0.0
02/08:20am 19.1 14.0 5.9 42 6.5 E 22 26 12 14 - - 0.0
02/08:10am 18.8 13.3 6.1 43 6.3 E 24 26 13 14 - - 0.0
02/08:00am 18.1 13.0 5.8 44 6.0 E 22 26 12 14 - - 0.0
02/07:50am 17.8 12.3 5.9 45 5.8 ESE 24 26 13 14 - - 0.0
02/07:40am 17.5 12.0 5.9 46 5.7 E 24 30 13 16 - - 0.0
02/07:30am 17.1 11.3 6.1 48 5.4 ESE 26 32 14 17 - - 0.0
02/07:20am 17.0 11.9 6.2 49 5.3 ESE 22 26 12 14 - - 0.0
02/07:10am 16.5 11.0 6.0 50 5.1 ESE 24 26 13 14 - - 0.0
02/07:00am 16.4 11.3 5.8 49 5.1 ESE 22 30 12 16 - - 0.0
02/06:50am 15.8 10.7 6.0 52 4.7 ESE 22 28 12 15 - - 0.0
02/06:40am 15.3 9.5 6.1 54 4.4 ESE 26 30 14 16 - - 0.0
02/06:30am 14.9 9.1 6.3 56 4.1 ESE 26 30 14 16 - - 0.0
02/06:20am 14.7 8.9 6.2 56 4.1 ESE 26 30 14 16 - - 0.0
02/06:10am 14.3 8.9 6.5 59 3.8 ESE 24 28 13 15 - - 0.0
02/06:00am 14.1 9.2 6.7 61 3.6 ESE 22 26 12 14 - - 0.0
02/05:50am 14.0 9.7 6.8 62 3.5 ESE 19 22 10 12 - - 0.0
02/05:40am 13.7 9.4 6.8 63 3.3 ESE 19 22 10 12 - - 0.0
02/05:30am 13.5 9.0 6.8 64 3.2 SE 20 26 11 14 - - 0.0
02/05:20am 13.2 8.6 6.7 64 3.1 SE 20 22 11 12 - - 0.0
02/05:10am 13.0 8.4 6.6 65 3.1 SE 20 26 11 14 - - 0.0
02/05:00am 12.9 8.5 6.6 65 3.0 SE 19 24 10 13 - - 0.0
02/04:50am 12.9 7.9 6.5 65 3.1 SE 22 30 12 16 - - 0.0
02/04:40am 12.9 8.5 6.5 65 3.1 SE 19 22 10 12 - - 0.0
02/04:30am 13.0 8.6 6.5 64 3.1 SE 19 24 10 13 - - 0.0
02/04:20am 13.1 8.1 6.5 64 3.2 SE 22 26 12 14 - - 0.0
02/04:10am 13.1 8.1 6.5 64 3.2 SE 22 26 12 14 - - 0.0
02/04:00am 13.1 8.1 6.5 64 3.2 SE 22 26 12 14 - - 0.0
02/03:50am 13.1 8.1 6.5 64 3.2 SE 22 26 12 14 - - 0.0
02/03:40am 13.1 8.1 6.5 64 3.2 SE 22 28 12 15 - - 0.0
02/03:30am 13.2 7.8 6.4 63 3.2 SE 24 28 13 15 - - 0.0
02/03:20am 13.2 7.4 6.3 63 3.3 SE 26 30 14 16 - - 0.0
02/03:10am 13.2 8.1 6.2 62 3.3 SE 22 28 12 15 - - 0.0
02/03:00am 13.3 8.2 6.2 62 3.4 SE 22 24 12 13 - - 0.0
02/02:50am 13.4 8.3 6.1 61 3.5 SE 22 24 12 13 - - 0.0
02/02:40am 13.5 8.8 5.9 60 3.6 SE 20 30 11 16 - - 0.0
02/02:30am 13.6 8.4 5.7 59 3.7 SE 22 28 12 15 - - 0.0
02/02:20am 13.8 8.6 5.4 57 3.9 SE 22 28 12 15 - - 0.0
02/02:10am 13.9 7.9 5.3 56 4.0 SE 26 33 14 18 - - 0.0
02/02:00am 14.0 8.7 5.1 55 4.2 SE 22 24 12 13 - - 0.0
02/01:50am 14.0 8.7 4.9 54 4.2 SE 22 26 12 14 - - 0.0
02/01:40am 14.2 8.8 4.7 53 4.4 SE 22 26 12 14 - - 0.0
02/01:30am 14.3 8.5 4.6 52 4.5 SE 24 30 13 16 - - 0.0
02/01:20am 14.4 9.0 4.5 51 4.6 SE 22 26 12 14 - - 0.0
02/01:10am 14.5 8.7 4.4 50 4.7 SE 24 28 13 15 - - 0.0
02/01:00am 14.7 8.9 4.5 50 4.7 SE 24 26 13 14 - - 0.0
02/12:50am 14.9 9.5 4.7 50 4.8 SSE 22 28 12 15 - - 0.0
02/12:40am 15.0 9.3 5.0 51 4.7 SE 24 28 13 15 - - 0.0
02/12:30am 15.2 9.6 5.3 51 4.7 SE 24 26 13 14 - - 0.0
02/12:20am 15.4 10.2 5.5 51 4.7 SE 22 32 12 17 - - 0.0
02/12:10am 15.6 10.1 5.8 52 4.7 SE 24 32 13 17 - - 0.0
02/12:00am 15.8 9.9 5.9 51 4.8 SE 26 32 14 17 - - 0.0
 
Date/Time
WST
Temp
°C
App
Temp
°C
Dew
Point
°C
Rel
Hum
%
Delta-T
°C
Wind Press
QNH
hPa
Press
MSL
hPa
Rain since
9am
mm
Dir  Spd
km/h
Gust
km/h
Spd
kts
Gust
kts
01/11:50pm 16.0 10.5 5.9 51 4.9 SE 24 30 13 16 - - 0.0
01/11:40pm 16.2 10.3 5.8 50 5.0 SE 26 30 14 16 - - 0.0
01/11:30pm 16.5 10.6 5.9 49 5.1 SE 26 32 14 17 - - 0.0
01/11:20pm 16.8 10.9 5.9 48 5.3 SE 26 32 14 17 - - 0.0
01/11:10pm 17.2 11.7 5.8 47 5.5 SE 24 30 13 16 - - 0.0
01/11:00pm 17.5 11.6 5.6 45 5.8 SE 26 33 14 18 - - 0.0
01/10:50pm 17.8 11.5 5.5 44 6.0 SE 28 32 15 17 - - 0.0
01/10:40pm 18.1 12.5 5.4 43 6.2 SE 24 32 13 17 - - 0.0
01/10:30pm 18.5 12.1 5.3 42 6.4 SSE 28 32 15 17 - - 0.0
01/10:20pm 19.0 13.4 5.2 40 6.7 SSE 24 32 13 17 - - 0.0
01/10:10pm 19.5 14.2 5.0 38 7.0 SSE 22 24 12 13 - - 0.0
01/10:00pm 20.1 13.6 4.8 36 7.4 SE 28 30 15 16 - - 0.0
01/09:50pm 20.7 15.3 4.6 34 7.8 SSE 22 26 12 14 - - 0.0
01/09:40pm 21.7 16.3 4.5 32 8.4 SSE 22 26 12 14 - - 0.0
01/09:30pm 23.2 17.2 3.1 27 9.7 SSE 24 28 13 15 - - 0.0
01/09:20pm 24.0 19.0 1.6 23 10.5 SSE 17 24 9 13 - - 0.0
01/09:10pm 24.1 19.9 1.7 23 10.6 SSE 13 15 7 8 - - 0.0
01/09:00pm 24.3 19.7 1.8 23 10.6 SSE 15 17 8 9 - - 0.0
01/08:50pm 24.5 19.9 1.7 22 10.8 SSE 15 17 8 9 - - 0.0
01/08:40pm 24.7 19.8 1.8 22 10.9 SSE 17 20 9 11 - - 0.0
01/08:30pm 24.9 20.0 1.9 22 11.0 SSE 17 19 9 10 - - 0.0
01/08:20pm 25.3 20.4 1.9 21 11.2 SSE 17 20 9 11 - - 0.0
01/08:10pm 25.5 20.2 1.8 21 11.3 SSE 19 22 10 12 - - 0.0
01/08:00pm 25.9 20.9 1.5 20 11.6 S 17 22 9 12 - - 0.0
01/07:50pm 25.5 22.0 1.1 20 11.5 S 9 9 5 5 - - 0.0
01/07:40pm 25.5 22.5 2.1 21 11.2 SSW 7 9 4 5 - - 0.0
01/07:30pm 26.4 23.7 2.5 21 11.6 SSW 6 7 3 4 - - 0.0
01/07:20pm 26.9 24.1 1.9 19 12.1 S 6 6 3 3 - - 0.0
01/07:10pm 27.2 24.7 1.7 19 12.3 S 4 6 2 3 - - 0.0
01/07:00pm 27.6 25.2 2.0 19 12.4 S 4 4 2 2 - - 0.0
01/06:50pm 28.2 25.4 2.0 18 12.8 S 6 7 3 4 - - 0.0
01/06:40pm 29.0 26.0 1.8 17 13.3 SSW 7 11 4 6 - - 0.0
01/06:30pm 29.5 25.6 1.2 16 13.7 WSW 11 15 6 8 - - 0.0
01/06:20pm 29.9 26.6 0.2 14 14.2 SSW 7 9 4 5 - - 0.0
01/06:10pm 30.1 26.1 0.2 14 14.3 SSW 11 15 6 8 - - 0.0
01/06:00pm 30.5 26.8 0.1 14 14.6 WSW 9 15 5 8 - - 0.0
01/05:50pm 30.6 26.5 0.1 14 14.6 SW 11 13 6 7 - - 0.0
01/05:40pm 30.8 27.1 -0.1 13 14.8 SSW 9 13 5 7 - - 0.0
01/05:30pm 31.0 26.7 -1.7 12 15.3 WSW 11 17 6 9 - - 0.0
01/05:20pm 31.3 26.8 -0.3 13 15.1 W 13 17 7 9 - - 0.0
01/05:10pm 31.4 27.7 0.2 13 15.1 WNW 9 13 5 7 - - 0.0
01/05:00pm 31.4 27.7 0.1 13 15.1 NNW 9 13 5 7 - - 0.0
01/04:50pm 31.5 27.0 -0.2 13 15.2 WNW 13 19 7 10 - - 0.0
01/04:40pm 31.3 27.0 1.1 14 14.8 WNW 13 19 7 10 - - 0.0
01/04:30pm 31.2 27.7 1.1 14 14.8 W 9 13 5 7 - - 0.0
01/04:20pm 31.1 28.6 3.7 17 14.0 NE 6 9 3 5 - - 0.0
01/04:10pm 31.5 28.4 3.7 17 14.3 NNW 9 13 5 7 - - 0.0
01/04:00pm 30.6 27.8 3.4 17 13.8 NW 7 11 4 6 - - 0.0
01/03:50pm 29.8 27.1 3.9 19 13.2 NW 7 11 4 6 - - 0.0
01/03:40pm 30.1 26.8 4.5 19 13.2 NNW 11 19 6 10 - - 0.0
01/03:30pm 30.0 27.6 4.1 19 13.3 WSW 6 9 3 5 - - 0.0
01/03:20pm 30.5 27.2 4.7 19 13.4 WNW 11 15 6 8 - - 0.0
01/03:10pm 31.5 27.8 4.2 18 14.1 WNW 13 20 7 11 - - 0.0
01/03:00pm 31.0 27.8 3.1 17 14.1 WSW 9 13 5 7 - - 0.0
01/02:50pm 30.8 28.6 6.2 21 13.1 S 7 11 4 6 - - 0.0
01/02:40pm 30.3 28.2 5.7 21 13.0 NNW 6 9 3 5 - - 0.0
01/02:30pm 30.1 26.7 5.8 21 12.8 WNW 13 17 7 9 - - 0.0
01/02:20pm 30.6 27.3 6.3 21 13.0 NW 13 19 7 10 - - 0.0
01/02:10pm 30.5 27.3 5.2 20 13.2 WNW 11 17 6 9 - - 0.0
01/02:00pm 30.4 27.5 6.4 22 12.8 NW 11 17 6 9 - - 0.0
01/01:50pm 30.6 27.5 5.4 20 13.2 NW 11 17 6 9 - - 0.0
01/01:40pm 30.3 27.3 6.1 21 12.8 W 11 20 6 11 - - 0.0
01/01:30pm 30.0 27.3 7.4 24 12.2 WNW 11 19 6 10 - - 0.0
01/01:20pm 30.2 27.8 6.9 23 12.5 NE 9 13 5 7 - - 0.0
01/01:10pm 29.4 27.7 8.2 26 11.6 E 7 11 4 6 - - 0.0
01/01:00pm 28.6 26.9 8.3 28 11.1 N 7 11 4 6 - - 0.0
01/12:50pm 28.2 26.1 8.4 28 10.8 NW 9 15 5 8 - - 0.0
01/12:40pm 28.7 26.6 8.3 27 11.1 N 9 13 5 7 - - 0.0
01/12:30pm 28.2 26.6 8.8 29 10.7 N 7 11 4 6 - - 0.0
01/12:20pm 28.3 26.8 8.4 28 10.9 NW 6 11 3 6 - - 0.0
01/12:10pm 27.5 25.9 8.7 30 10.3 SSE 7 11 4 6 - - 0.0
01/12:00pm 27.4 25.3 8.4 30 10.3 NNW 9 15 5 8 - - 0.0
01/11:50am 26.8 25.1 8.4 31 10.0 N 7 11 4 6 - - 0.0
01/11:40am 26.4 24.3 8.3 31 9.8 ENE 9 13 5 7 - - 0.0
01/11:30am 26.3 24.7 8.7 33 9.6 ENE 7 13 4 7 - - 0.0
01/11:20am 25.8 24.1 8.3 33 9.4 ENE 7 15 4 8 - - 0.0
01/11:10am 25.5 23.2 8.9 35 9.0 NNW 11 15 6 8 - - 0.0
01/11:00am 25.8 23.8 8.5 33 9.3 NE 9 13 5 7 - - 0.0
01/10:50am 25.1 22.6 8.0 33 9.1 ENE 11 19 6 10 - - 0.0
01/10:40am 24.6 22.2 8.7 36 8.6 ENE 11 17 6 9 - - 0.0
01/10:30am 24.7 22.2 8.1 34 8.8 ENE 11 15 6 8 - - 0.0
01/10:20am 24.2 21.7 8.1 35 8.5 NE 11 13 6 7 - - 0.0
01/10:10am 23.3 20.8 8.0 37 8.1 ENE 11 17 6 9 - - 0.0
01/10:00am 23.2 20.7 8.1 38 8.0 ENE 11 19 6 10 - - 0.0
01/09:50am 22.4 19.9 8.1 40 7.5 ENE 11 13 6 7 - - 0.0
01/09:40am 22.0 19.5 8.0 40 7.3 ENE 11 17 6 9 - - 0.0
01/09:30am 21.4 18.5 8.1 42 6.9 ENE 13 17 7 9 - - 0.0
01/09:20am 21.1 17.7 7.8 42 6.9 ENE 15 19 8 10 - - 0.0
01/09:10am 20.8 17.8 7.7 42 6.8 ENE 13 15 7 8 - - 0.0
01/09:00am 20.4 17.1 7.9 44 6.5 ENE 15 19 8 10 - - 0.0
01/08:50am 20.3 16.9 7.6 44 6.5 E 15 20 8 11 - - 0.0
01/08:40am 19.7 15.9 7.7 45 6.2 E 17 19 9 10 - - 0.0
01/08:30am 19.2 15.4 7.4 46 6.0 E 17 20 9 11 - - 0.0
01/08:20am 18.8 15.4 7.5 47 5.7 E 15 17 8 9 - - 0.0
01/08:10am 18.7 14.9 7.4 47 5.7 ENE 17 20 9 11 - - 0.0
01/08:00am 18.2 14.0 7.5 49 5.4 E 19 20 10 11 - - 0.0
01/07:50am 17.8 13.9 7.3 50 5.3 E 17 20 9 11 - - 0.0
01/07:40am 17.8 13.9 6.9 49 5.4 E 17 20 9 11 - - 0.0
01/07:30am 17.2 13.3 7.2 51 5.0 E 17 20 9 11 - - 0.0
01/07:20am 16.6 12.1 7.0 53 4.8 E 20 22 11 12 - - 0.0
01/07:10am 16.4 12.1 6.8 53 4.7 E 19 24 10 13 - - 0.0
01/07:00am 15.9 11.5 6.4 53 4.6 E 19 24 10 13 - - 0.0
01/06:50am 15.5 11.1 6.5 55 4.4 E 19 24 10 13 - - 0.0
01/06:40am 15.0 10.4 6.4 56 4.2 E 20 26 11 14 - - 0.0
01/06:30am 14.7 10.1 6.3 57 4.0 E 20 24 11 13 - - 0.0
01/06:20am 14.2 9.5 6.1 58 3.9 E 20 24 11 13 - - 0.0
01/06:10am 13.9 9.1 5.7 57 3.9 E 20 22 11 12 - - 0.0
01/06:00am 13.8 9.6 5.5 57 3.9 - 17 20 9 11 - - 0.0
01/05:50am 13.5 9.1 5.0 56 3.9 E 17 20 9 11 - - 0.0
01/05:40am 13.0 8.9 4.5 56 3.9 E 15 17 8 9 - - 0.0
01/05:30am 12.6 8.5 4.1 56 3.8 ESE 15 19 8 10 - - 0.0
01/05:20am 12.2 8.4 3.7 56 3.8 ESE 13 17 7 9 - - 0.0
01/05:10am 11.9 8.0 3.5 56 3.7 ESE 13 15 7 8 - - 0.0
01/05:00am 11.6 7.7 3.3 56 3.7 ESE 13 15 7 8 - - 0.0
01/04:50am 11.6 7.3 3.3 56 3.7 ESE 15 17 8 9 - - 0.0
01/04:40am 11.6 7.7 3.3 56 3.7 ESE 13 17 7 9 - - 0.0
01/04:30am 11.6 7.7 3.4 57 3.6 ESE 13 15 7 8 - - 0.0
01/04:20am 11.7 7.8 3.4 56 3.7 ESE 13 15 7 8 - - 0.0
01/04:10am 11.9 8.0 3.5 56 3.7 ESE 13 15 7 8 - - 0.0
01/04:00am 12.0 8.1 3.5 56 3.8 SE 13 15 7 8 - - 0.0
01/03:50am 12.1 8.2 3.5 55 3.8 ESE 13 15 7 8 - - 0.0
01/03:40am 12.2 8.3 3.5 55 3.9 ESE 13 17 7 9 - - 0.0
01/03:30am 12.4 8.5 3.6 55 3.9 SE 13 19 7 10 - - 0.0
01/03:20am 12.5 8.6 3.6 54 4.0 SE 13 15 7 8 - - 0.0
01/03:10am 12.6 8.8 3.7 54 4.0 ESE 13 17 7 9 - - 0.0
01/03:00am 12.8 9.0 3.7 54 4.1 SE 13 15 7 8 - - 0.0
01/02:50am 12.9 9.1 3.7 53 4.1 SE 13 15 7 8 - - 0.0
01/02:40am 13.1 9.6 3.7 53 4.2 SE 11 13 6 7 - - 0.0
01/02:30am 13.3 9.5 3.7 52 4.3 SE 13 17 7 9 - - 0.0
01/02:20am 13.4 9.6 3.7 52 4.4 SE 13 17 7 9 - - 0.0
01/02:10am 13.6 9.8 3.8 51 4.4 SE 13 17 7 9 - - 0.0
01/02:00am 13.8 10.0 3.8 51 4.5 SE 13 15 7 8 - - 0.0
01/01:50am 14.0 9.8 3.8 50 4.6 SE 15 19 8 10 - - 0.0
01/01:40am 14.3 10.1 3.7 49 4.8 SE 15 17 8 9 - - 0.0
01/01:30am 14.6 10.4 3.6 47 5.0 SE 15 19 8 10 - - 0.0
01/01:20am 15.0 10.7 3.5 46 5.2 SE 15 20 8 11 - - 0.0
01/01:10am 15.5 10.8 3.2 43 5.6 ESE 17 20 9 11 - - 0.0
01/01:00am 15.7 11.0 3.2 43 5.7 ESE 17 22 9 12 - - 0.0
01/12:50am 15.9 10.8 3.1 42 5.8 SE 19 20 10 11 - - 0.0
01/12:40am 16.2 11.1 3.0 41 6.0 ESE 19 24 10 13 - - 0.0
01/12:30am 16.4 11.7 2.9 40 6.1 SE 17 20 9 11 - - 0.0
01/12:20am 16.7 11.9 2.8 39 6.3 SE 17 20 9 11 - - 0.0
01/12:10am 17.2 11.9 2.9 38 6.5 SE 20 22 11 12 - - 0.0
01/12:00am 17.8 13.0 2.8 36 6.9 SE 17 19 9 10 - - 0.0
 
Date/Time
WST
Temp
°C
App
Temp
°C
Dew
Point
°C
Rel
Hum
%
Delta-T
°C
Wind Press
QNH
hPa
Press
MSL
hPa
Rain since
9am
mm
Dir  Spd
km/h
Gust
km/h
Spd
kts
Gust
kts
30/11:50pm 18.1 14.1 2.8 36 7.0 SE 13 15 7 8 - - 0.0
30/11:40pm 18.5 13.3 2.7 35 7.3 ESE 19 22 10 12 - - 0.0
30/11:30pm 18.6 14.2 2.8 35 7.3 ESE 15 17 8 9 - - 0.0
30/11:20pm 18.8 14.8 2.9 34 7.4 SE 13 15 7 8 - - 0.0
30/11:10pm 19.0 15.0 2.9 34 7.5 ESE 13 13 7 7 - - 0.0
30/11:00pm 19.2 15.2 2.8 33 7.6 SE 13 15 7 8 - - 0.0
30/10:50pm 19.5 15.5 2.8 33 7.8 ESE 13 13 7 7 - - 0.0
30/10:40pm 19.6 15.6 2.7 32 7.9 ESE 13 13 7 7 - - 0.0
30/10:30pm 19.8 16.2 2.7 32 8.0 ESE 11 15 6 8 - - 0.0
30/10:20pm 20.1 16.0 2.5 31 8.2 ESE 13 15 7 8 - - 0.0
30/10:10pm 20.3 16.6 2.4 30 8.3 ESE 11 13 6 7 - - 0.0
30/10:00pm 20.5 16.4 2.3 30 8.4 ESE 13 15 7 8 - - 0.0
30/09:50pm 20.7 17.0 2.1 29 8.6 ESE 11 15 6 8 - - 0.0
30/09:40pm 20.8 17.0 2.0 28 8.7 ESE 11 13 6 7 - - 0.0
30/09:30pm 20.9 17.5 2.0 28 8.7 ESE 9 13 5 7 - - 0.0
30/09:20pm 21.3 17.2 2.0 28 9.0 ESE 13 15 7 8 - - 0.0
30/09:10pm 21.5 17.4 2.0 27 9.1 ESE 13 15 7 8 - - 0.0
30/09:00pm 21.5 17.7 1.9 27 9.1 ESE 11 15 6 8 - - 0.0
30/08:50pm 21.6 17.9 2.1 27 9.1 ESE 11 13 6 7 - - 0.0
30/08:40pm 21.8 18.1 2.2 27 9.2 ESE 11 13 6 7 - - 0.0
30/08:30pm 22.0 18.3 2.2 27 9.3 SE 11 13 6 7 - - 0.0
30/08:20pm 22.3 18.6 2.5 27 9.4 ESE 11 13 6 7 - - 0.0
30/08:10pm 22.5 18.9 2.7 27 9.4 ESE 11 13 6 7 - - 0.0
30/08:00pm 22.7 19.1 2.8 27 9.5 ESE 11 13 6 7 - - 0.0
30/07:50pm 23.0 19.3 2.6 26 9.7 SE 11 15 6 8 - - 0.0
30/07:40pm 23.3 19.3 2.6 25 9.9 SE 13 15 7 8 - - 0.0
30/07:30pm 23.7 19.3 2.6 25 10.1 ESE 15 15 8 8 - - 0.0
30/07:20pm 24.0 19.6 2.5 24 10.3 ESE 15 17 8 9 - - 0.0
30/07:10pm 24.3 19.9 2.7 24 10.4 ESE 15 19 8 10 - - 0.0
30/07:00pm 24.7 19.9 2.7 24 10.6 ESE 17 19 9 10 - - 0.0
30/06:50pm 25.1 21.7 2.1 22 11.0 SE 9 17 5 9 - - 0.0
30/06:40pm 25.8 22.3 1.0 20 11.7 SSE 9 11 5 6 - - 0.0
30/06:30pm 26.3 22.4 1.1 19 11.9 SSE 11 15 6 8 - - 0.0
30/06:20pm 26.8 23.2 0.9 18 12.3 SSE 9 13 5 7 - - 0.0
30/06:10pm 27.1 23.1 0.5 17 12.5 SSE 11 11 6 6 - - 0.0
30/06:00pm 27.3 22.9 0.4 17 12.7 SSE 13 17 7 9 - - 0.0
30/05:50pm 27.7 23.7 0.5 17 12.9 SSE 11 13 6 7 - - 0.0
30/05:40pm 27.6 22.9 0.6 17 12.8 SE 15 17 8 9 - - 0.0
30/05:30pm 27.8 23.8 0.8 17 12.9 SE 11 19 6 10 - - 0.0
30/05:20pm 28.1 24.6 1.0 17 13.0 SSE 9 13 5 7 - - 0.0
30/05:10pm 28.1 23.8 1.3 17 12.9 SE 13 17 7 9 - - 0.0
30/05:00pm 28.4 24.5 1.2 17 13.1 SSE 11 17 6 9 - - 0.0
30/04:50pm 28.3 24.0 1.3 17 13.0 SSE 13 19 7 10 - - 0.0
30/04:40pm 28.4 24.2 1.6 17 13.0 S 13 17 7 9 - - 0.0
30/04:30pm 28.7 24.9 1.7 17 13.2 SSE 11 15 6 8 - - 0.0
30/04:20pm 28.6 24.4 1.9 18 13.0 S 13 17 7 9 - - 0.0
30/04:10pm 28.4 24.3 2.4 18 12.8 SSE 13 17 7 9 - - 0.0
30/04:00pm 28.5 24.8 2.6 19 12.8 SSE 11 15 6 8 - - 0.0
30/03:50pm 28.4 24.4 3.0 19 12.6 SE 13 17 7 9 - - 0.0
30/03:40pm 28.6 25.4 2.8 19 12.8 SE 9 17 5 9 - - 0.0
30/03:30pm 28.7 25.5 2.8 19 12.9 SSE 9 17 5 9 - - 0.0
30/03:20pm 28.6 24.9 2.5 18 12.9 S 11 13 6 7 - - 0.0
30/03:10pm 28.4 24.8 2.8 19 12.7 SE 11 15 6 8 - - 0.0
30/03:00pm 28.3 24.8 3.4 20 12.5 WSW 11 13 6 7 - - 0.0
30/02:50pm 28.8 25.4 3.9 20 12.6 SW 11 15 6 8 - - 0.0
30/02:40pm 28.6 24.3 3.1 19 12.7 W 15 17 8 9 - - 0.0
30/02:30pm 28.4 24.6 3.7 20 12.4 SW 13 15 7 8 - - 0.0
30/02:20pm 28.6 24.8 3.8 20 12.5 SW 13 19 7 10 - - 0.0

Other formats

Comma delimited format used in spreadsheet applications
http://www.bom.gov.au/fwo/IDW60801/IDW60801.99459.axf

JavaScript Object Notation format (JSON) in row-major order
http://www.bom.gov.au/fwo/IDW60801/IDW60801.99459.json

Data quality

Most of these data are generated automatically and are frequently updated. Quality checks on data are not normally performed. It is possible for incorrect values to appear. Refer to information at About Latest Weather Observations and please check the disclaimer before using these data.